EGDM

MoD Boscombe Down Airport

Amesbury, United Kingdom
METAR EGDM 240750Z 04009KT 9999 BKN007 12/10 Q1021 GRN TEMPO BKN006 YLO1
Observed Flight Rules
May-24 @ 07:50 UTC (19 minutes ago) Instrument Flight Rules
Wind Visibility Clouds
40° at 9 knots 10,000+ meters
  • Broken at 700' AGL
Temperatures Readings
Current 12°C / 54°F
Dewpoint 10°C / 50°F
Humidity 88%
Altimeter 30.15" Hg
Pressure 1021 hPa
Elevation 124
METAR EGDM 240750Z 04009KT 9999 BKN007 12/10 Q1021 GRN TEMPO BKN006 YLO1
Observed Flight Rules
May-24 @ 07:50 UTC
(19 minutes ago)
IFR
Wind Visibility
40° at 9 knots 10,000+ meters
Clouds
  • Broken at 700' AGL
Temperature Dewpoint
12°C / 54°F 10°C / 50°F
Humidity Altimeter Pressure
88% 30.15" Hg 1021 hPa